El Trebol, Argentina
Current Conditions -  °F | °C
As of 12:00 AM on Thursday 27 Nov 2014 (Local Time) from SAVC Reporting Station
Clear Clear  
Wind Chill: 54°   Ceiling: Unl
Heat Index: 54°   Visibility: 6mi
Dew Point: 36°   Wind: 6mph
Humidity: 51%   Direction: 290°WNW
Pressure: 29.88"   Gusts: NA
Location:  45.82°S, 67.93°W
Report Text: SAVC 270300Z 29005KT CAVOK 12/02 Q1012
Loading
Personal Weather Stations






























Interactive Weather Map New forecast layout! Learn more

10-Day Weather Forecast

Advertisements
Track Severe Weather on mobile